sensor_id;sensor_type;location;lat;lon;timestamp;pressure;altitude;pressure_sealevel;temperature
78917;BMP280;68315;48.608;11.436;2023-10-31T00:01:01;95630.88;;;11.95
78917;BMP280;68315;48.608;11.436;2023-10-31T00:03:27;95635.81;;;11.97
78917;BMP280;68315;48.608;11.436;2023-10-31T00:05:52;95641.59;;;11.91
78917;BMP280;68315;48.608;11.436;2023-10-31T00:08:17;95634.63;;;11.90
78917;BMP280;68315;48.608;11.436;2023-10-31T00:10:43;95641.88;;;11.86
78917;BMP280;68315;48.608;11.436;2023-10-31T00:13:10;95642.63;;;11.86
78917;BMP280;68315;48.608;11.436;2023-10-31T00:15:35;95639.69;;;11.84
78917;BMP280;68315;48.608;11.436;2023-10-31T00:18:00;95633.03;;;11.87
78917;BMP280;68315;48.608;11.436;2023-10-31T00:20:26;95646.50;;;11.83
78917;BMP280;68315;48.608;11.436;2023-10-31T00:22:51;95646.22;;;11.79
78917;BMP280;68315;48.608;11.436;2023-10-31T00:25:16;95650.97;;;11.78
78917;BMP280;68315;48.608;11.436;2023-10-31T00:27:41;95656.03;;;11.72
78917;BMP280;68315;48.608;11.436;2023-10-31T00:30:09;95656.78;;;11.73
78917;BMP280;68315;48.608;11.436;2023-10-31T00:32:35;95672.72;;;11.74
78917;BMP280;68315;48.608;11.436;2023-10-31T00:35:00;95671.25;;;11.73
78917;BMP280;68315;48.608;11.436;2023-10-31T00:37:25;95669.50;;;11.68
78917;BMP280;68315;48.608;11.436;2023-10-31T00:39:50;95674.69;;;11.64
78917;BMP280;68315;48.608;11.436;2023-10-31T00:42:16;95677.28;;;11.62
78917;BMP280;68315;48.608;11.436;2023-10-31T00:44:42;95673.69;;;11.60
78917;BMP280;68315;48.608;11.436;2023-10-31T00:47:07;95688.88;;;11.61
78917;BMP280;68315;48.608;11.436;2023-10-31T00:49:32;95682.91;;;11.55
78917;BMP280;68315;48.608;11.436;2023-10-31T00:51:58;95688.72;;;11.59
78917;BMP280;68315;48.608;11.436;2023-10-31T00:54:23;95681.59;;;11.56
78917;BMP280;68315;48.608;11.436;2023-10-31T00:56:48;95687.53;;;11.52
78917;BMP280;68315;48.608;11.436;2023-10-31T00:59:13;95687.38;;;11.50
78917;BMP280;68315;48.608;11.436;2023-10-31T01:01:39;95690.56;;;11.47
78917;BMP280;68315;48.608;11.436;2023-10-31T01:04:06;95696.63;;;11.45
78917;BMP280;68315;48.608;11.436;2023-10-31T01:06:32;95697.78;;;11.42
78917;BMP280;68315;48.608;11.436;2023-10-31T01:08:57;95697.03;;;11.42
78917;BMP280;68315;48.608;11.436;2023-10-31T01:11:23;95698.16;;;11.39
78917;BMP280;68315;48.608;11.436;2023-10-31T01:13:48;95694.88;;;11.40
78917;BMP280;68315;48.608;11.436;2023-10-31T01:16:13;95690.53;;;11.37
78917;BMP280;68315;48.608;11.436;2023-10-31T01:18:38;95700.06;;;11.36
78917;BMP280;68315;48.608;11.436;2023-10-31T01:21:04;95708.72;;;11.33
78917;BMP280;68315;48.608;11.436;2023-10-31T01:23:29;95714.94;;;11.33
78917;BMP280;68315;48.608;11.436;2023-10-31T01:25:54;95715.13;;;11.35
78917;BMP280;68315;48.608;11.436;2023-10-31T01:28:19;95703.94;;;11.33
78917;BMP280;68315;48.608;11.436;2023-10-31T01:30:45;95703.38;;;11.35
78917;BMP280;68315;48.608;11.436;2023-10-31T01:33:10;95713.66;;;11.34
78917;BMP280;68315;48.608;11.436;2023-10-31T01:35:35;95713.66;;;11.34
78917;BMP280;68315;48.608;11.436;2023-10-31T01:38:01;95723.19;;;11.33
78917;BMP280;68315;48.608;11.436;2023-10-31T01:40:26;95716.66;;;11.29
78917;BMP280;68315;48.608;11.436;2023-10-31T01:42:51;95716.06;;;11.30
78917;BMP280;68315;48.608;11.436;2023-10-31T01:45:17;95714.31;;;11.25
78917;BMP280;68315;48.608;11.436;2023-10-31T01:47:45;95714.75;;;11.22
78917;BMP280;68315;48.608;11.436;2023-10-31T01:50:13;95712.41;;;11.18
78917;BMP280;68315;48.608;11.436;2023-10-31T01:52:38;95719.63;;;11.14
78917;BMP280;68315;48.608;11.436;2023-10-31T01:55:04;95713.97;;;11.12
78917;BMP280;68315;48.608;11.436;2023-10-31T01:57:30;95714.53;;;11.10
78917;BMP280;68315;48.608;11.436;2023-10-31T01:59:55;95712.97;;;11.17
78917;BMP280;68315;48.608;11.436;2023-10-31T02:02:22;95707.56;;;11.09
78917;BMP280;68315;48.608;11.436;2023-10-31T02:04:49;95708.16;;;11.08
78917;BMP280;68315;48.608;11.436;2023-10-31T02:07:14;95713.66;;;11.08
78917;BMP280;68315;48.608;11.436;2023-10-31T02:09:39;95712.94;;;11.07
78917;BMP280;68315;48.608;11.436;2023-10-31T02:12:05;95720.28;;;11.05
78917;BMP280;68315;48.608;11.436;2023-10-31T02:14:30;95719.84;;;11.08
78917;BMP280;68315;48.608;11.436;2023-10-31T02:16:55;95739.97;;;11.11
78917;BMP280;68315;48.608;11.436;2023-10-31T02:19:21;95735.78;;;11.10
78917;BMP280;68315;48.608;11.436;2023-10-31T02:21:46;95739.69;;;11.07
78917;BMP280;68315;48.608;11.436;2023-10-31T02:24:11;95733.13;;;11.02
78917;BMP280;68315;48.608;11.436;2023-10-31T02:26:37;95727.47;;;11.00
78917;BMP280;68315;48.608;11.436;2023-10-31T02:29:03;95746.16;;;11.02
78917;BMP280;68315;48.608;11.436;2023-10-31T02:31:29;95744.09;;;11.02
78917;BMP280;68315;48.608;11.436;2023-10-31T02:33:54;95749.59;;;11.02
78917;BMP280;68315;48.608;11.436;2023-10-31T02:36:20;95753.09;;;11.03
78917;BMP280;68315;48.608;11.436;2023-10-31T02:38:46;95754.81;;;10.98
78917;BMP280;68315;48.608;11.436;2023-10-31T02:41:12;95740.91;;;10.96
78917;BMP280;68315;48.608;11.436;2023-10-31T02:43:38;95750.06;;;10.99
78917;BMP280;68315;48.608;11.436;2023-10-31T02:46:03;95737.28;;;10.93
78917;BMP280;68315;48.608;11.436;2023-10-31T02:48:28;95745.53;;;10.93
78917;BMP280;68315;48.608;11.436;2023-10-31T02:50:54;95732.19;;;10.90
78917;BMP280;68315;48.608;11.436;2023-10-31T02:53:19;95742.28;;;10.87
78917;BMP280;68315;48.608;11.436;2023-10-31T02:55:45;95740.56;;;10.92
78917;BMP280;68315;48.608;11.436;2023-10-31T02:58:10;95746.97;;;10.94
78917;BMP280;68315;48.608;11.436;2023-10-31T03:00:39;95756.19;;;10.89
78917;BMP280;68315;48.608;11.436;2023-10-31T03:03:04;95762.22;;;10.88
78917;BMP280;68315;48.608;11.436;2023-10-31T03:05:29;95769.34;;;10.91
78917;BMP280;68315;48.608;11.436;2023-10-31T03:07:55;95760.78;;;10.87
78917;BMP280;68315;48.608;11.436;2023-10-31T03:10:21;95776.53;;;10.86
78917;BMP280;68315;48.608;11.436;2023-10-31T03:12:46;95773.41;;;10.90
78917;BMP280;68315;48.608;11.436;2023-10-31T03:15:12;95770.31;;;10.86
78917;BMP280;68315;48.608;11.436;2023-10-31T03:17:37;95763.97;;;10.83
78917;BMP280;68315;48.608;11.436;2023-10-31T03:20:02;95774.94;;;10.83
78917;BMP280;68315;48.608;11.436;2023-10-31T03:22:28;95786.78;;;10.86
78917;BMP280;68315;48.608;11.436;2023-10-31T03:24:53;95789.41;;;10.84
78917;BMP280;68315;48.608;11.436;2023-10-31T03:27:19;95797.50;;;10.82
78917;BMP280;68315;48.608;11.436;2023-10-31T03:29:44;95806.44;;;10.82
78917;BMP280;68315;48.608;11.436;2023-10-31T03:32:09;95807.00;;;10.81
78917;BMP280;68315;48.608;11.436;2023-10-31T03:34:35;95815.09;;;10.79
78917;BMP280;68315;48.608;11.436;2023-10-31T03:37:00;95818.75;;;10.81
78917;BMP280;68315;48.608;11.436;2023-10-31T03:39:25;95813.53;;;10.85
78917;BMP280;68315;48.608;11.436;2023-10-31T03:41:51;95820.03;;;10.80
78917;BMP280;68315;48.608;11.436;2023-10-31T03:44:16;95809.03;;;10.80
78917;BMP280;68315;48.608;11.436;2023-10-31T03:46:41;95808.47;;;10.82
78917;BMP280;68315;48.608;11.436;2023-10-31T03:49:06;95821.31;;;10.79
78917;BMP280;68315;48.608;11.436;2023-10-31T03:51:33;95832.31;;;10.79
78917;BMP280;68315;48.608;11.436;2023-10-31T03:53:59;95829.25;;;10.75
78917;BMP280;68315;48.608;11.436;2023-10-31T03:56:24;95820.09;;;10.73
78917;BMP280;68315;48.608;11.436;2023-10-31T03:58:50;95817.34;;;10.73
78917;BMP280;68315;48.608;11.436;2023-10-31T04:01:15;95826.72;;;10.70
78917;BMP280;68315;48.608;11.436;2023-10-31T04:03:40;95825.97;;;10.69
78917;BMP280;68315;48.608;11.436;2023-10-31T04:06:06;95832.28;;;10.62
78917;BMP280;68315;48.608;11.436;2023-10-31T04:08:31;95824.59;;;10.61
78917;BMP280;68315;48.608;11.436;2023-10-31T04:10:56;95819.09;;;10.61
78917;BMP280;68315;48.608;11.436;2023-10-31T04:13:21;95800.84;;;10.56
78917;BMP280;68315;48.608;11.436;2023-10-31T04:15:47;95811.34;;;10.50
78917;BMP280;68315;48.608;11.436;2023-10-31T04:18:12;95823.59;;;10.49
78917;BMP280;68315;48.608;11.436;2023-10-31T04:20:37;95831.13;;;10.48
78917;BMP280;68315;48.608;11.436;2023-10-31T04:23:03;95830.41;;;10.48
78917;BMP280;68315;48.608;11.436;2023-10-31T04:25:28;95839.19;;;10.46
78917;BMP280;68315;48.608;11.436;2023-10-31T04:27:54;95838.16;;;10.42
78917;BMP280;68315;48.608;11.436;2023-10-31T04:30:19;95851.13;;;10.41
78917;BMP280;68315;48.608;11.436;2023-10-31T04:32:45;95851.72;;;10.40
78917;BMP280;68315;48.608;11.436;2023-10-31T04:35:10;95846.53;;;10.44
78917;BMP280;68315;48.608;11.436;2023-10-31T04:37:36;95853.66;;;10.47
78917;BMP280;68315;48.608;11.436;2023-10-31T04:40:01;95846.53;;;10.44
78917;BMP280;68315;48.608;11.436;2023-10-31T04:42:26;95853.47;;;10.45
78917;BMP280;68315;48.608;11.436;2023-10-31T04:44:52;95835.41;;;10.42
78917;BMP280;68315;48.608;11.436;2023-10-31T04:47:17;95845.81;;;10.43
78917;BMP280;68315;48.608;11.436;2023-10-31T04:49:42;95838.16;;;10.42
78917;BMP280;68315;48.608;11.436;2023-10-31T04:52:07;95844.50;;;10.44
78917;BMP280;68315;48.608;11.436;2023-10-31T04:54:33;95839.63;;;10.43
78917;BMP280;68315;48.608;11.436;2023-10-31T04:56:58;95846.22;;;10.40
78917;BMP280;68315;48.608;11.436;2023-10-31T04:59:23;95842.91;;;10.41
78917;BMP280;68315;48.608;11.436;2023-10-31T05:01:50;95848.38;;;10.41
78917;BMP280;68315;48.608;11.436;2023-10-31T05:04:16;95845.09;;;10.43
78917;BMP280;68315;48.608;11.436;2023-10-31T05:06:42;95853.88;;;10.41
78917;BMP280;68315;48.608;11.436;2023-10-31T05:09:07;95866.47;;;10.44
78917;BMP280;68315;48.608;11.436;2023-10-31T05:11:32;95860.28;;;10.44
78917;BMP280;68315;48.608;11.436;2023-10-31T05:13:58;95853.88;;;10.41
78917;BMP280;68315;48.608;11.436;2023-10-31T05:16:23;95859.38;;;10.41
78917;BMP280;68315;48.608;11.436;2023-10-31T05:18:48;95862.69;;;10.40
78917;BMP280;68315;48.608;11.436;2023-10-31T05:21:18;95857.75;;;10.38
78917;BMP280;68315;48.608;11.436;2023-10-31T05:23:44;95867.97;;;10.38
78917;BMP280;68315;48.608;11.436;2023-10-31T05:26:11;95870.03;;;10.37
78917;BMP280;68315;48.608;11.436;2023-10-31T05:28:36;95855.72;;;10.39
78917;BMP280;68315;48.608;11.436;2023-10-31T05:31:02;95862.69;;;10.40
78917;BMP280;68315;48.608;11.436;2023-10-31T05:33:28;95865.22;;;10.38
78917;BMP280;68315;48.608;11.436;2023-10-31T05:35:53;95863.06;;;10.36
78917;BMP280;68315;48.608;11.436;2023-10-31T05:38:19;95864.94;;;10.34
78917;BMP280;68315;48.608;11.436;2023-10-31T05:40:44;95868.41;;;10.34
78917;BMP280;68315;48.608;11.436;2023-10-31T05:43:10;95875.00;;;10.31
78917;BMP280;68315;48.608;11.436;2023-10-31T05:45:35;95883.03;;;10.29
78917;BMP280;68315;48.608;11.436;2023-10-31T05:48:03;95874.66;;;10.27
78917;BMP280;68315;48.608;11.436;2023-10-31T05:50:29;95884.34;;;10.28
78917;BMP280;68315;48.608;11.436;2023-10-31T05:52:58;95887.66;;;10.27
78917;BMP280;68315;48.608;11.436;2023-10-31T05:55:24;95894.59;;;10.28
78917;BMP280;68315;48.608;11.436;2023-10-31T05:57:49;95901.56;;;10.29
78917;BMP280;68315;48.608;11.436;2023-10-31T06:00:15;95904.13;;;10.27
78917;BMP280;68315;48.608;11.436;2023-10-31T06:02:40;95905.75;;;10.30
78917;BMP280;68315;48.608;11.436;2023-10-31T06:05:06;95917.28;;;10.28
78917;BMP280;68315;48.608;11.436;2023-10-31T06:07:32;95917.28;;;10.28
78917;BMP280;68315;48.608;11.436;2023-10-31T06:09:57;95929.41;;;10.25
78917;BMP280;68315;48.608;11.436;2023-10-31T06:12:22;95937.06;;;10.27
78917;BMP280;68315;48.608;11.436;2023-10-31T06:14:48;95945.31;;;10.27
78917;BMP280;68315;48.608;11.436;2023-10-31T06:17:13;95956.81;;;10.33
78917;BMP280;68315;48.608;11.436;2023-10-31T06:19:38;95962.13;;;10.31
78917;BMP280;68315;48.608;11.436;2023-10-31T06:22:09;95968.72;;;10.28
78917;BMP280;68315;48.608;11.436;2023-10-31T06:24:35;95978.66;;;10.23
78917;BMP280;68315;48.608;11.436;2023-10-31T06:27:00;95986.13;;;10.23
78917;BMP280;68315;48.608;11.436;2023-10-31T06:29:25;95984.66;;;10.22
78917;BMP280;68315;48.608;11.436;2023-10-31T06:31:50;95995.47;;;10.20
78917;BMP280;68315;48.608;11.436;2023-10-31T06:34:16;95998.22;;;10.20
78917;BMP280;68315;48.608;11.436;2023-10-31T06:36:41;95998.22;;;10.20
78917;BMP280;68315;48.608;11.436;2023-10-31T06:39:06;95999.53;;;10.19
78917;BMP280;68315;48.608;11.436;2023-10-31T06:41:32;96001.34;;;10.16
78917;BMP280;68315;48.608;11.436;2023-10-31T06:43:58;96014.31;;;10.23
78917;BMP280;68315;48.608;11.436;2023-10-31T06:46:23;96016.50;;;10.25
78917;BMP280;68315;48.608;11.436;2023-10-31T06:48:48;96008.09;;;10.23
78917;BMP280;68315;48.608;11.436;2023-10-31T06:51:14;96008.50;;;10.19
78917;BMP280;68315;48.608;11.436;2023-10-31T06:53:39;95999.53;;;10.19
78917;BMP280;68315;48.608;11.436;2023-10-31T06:56:04;96010.84;;;10.23
78917;BMP280;68315;48.608;11.436;2023-10-31T06:58:30;95991.63;;;10.23
78917;BMP280;68315;48.608;11.436;2023-10-31T07:00:55;95988.88;;;10.23
78917;BMP280;68315;48.608;11.436;2023-10-31T07:03:23;95994.38;;;10.23
78917;BMP280;68315;48.608;11.436;2023-10-31T07:05:48;95992.91;;;10.22
78917;BMP280;68315;48.608;11.436;2023-10-31T07:08:14;95998.22;;;10.20
78917;BMP280;68315;48.608;11.436;2023-10-31T07:10:39;96000.41;;;10.21
78917;BMP280;68315;48.608;11.436;2023-10-31T07:13:04;95998.22;;;10.20
78917;BMP280;68315;48.608;11.436;2023-10-31T07:15:30;96003.00;;;10.19
78917;BMP280;68315;48.608;11.436;2023-10-31T07:17:55;96019.47;;;10.19
78917;BMP280;68315;48.608;11.436;2023-10-31T07:20:20;96014.69;;;10.20
78917;BMP280;68315;48.608;11.436;2023-10-31T07:22:45;96016.13;;;10.21
78917;BMP280;68315;48.608;11.436;2023-10-31T07:25:11;96035.34;;;10.21
78917;BMP280;68315;48.608;11.436;2023-10-31T07:27:36;96037.94;;;10.19
78917;BMP280;68315;48.608;11.436;2023-10-31T07:30:03;96033.56;;;10.16
78917;BMP280;68315;48.608;11.436;2023-10-31T07:32:29;96050.97;;;10.10
78917;BMP280;68315;48.608;11.436;2023-10-31T07:34:54;96042.16;;;10.12
78917;BMP280;68315;48.608;11.436;2023-10-31T07:37:20;96046.56;;;10.07
78917;BMP280;68315;48.608;11.436;2023-10-31T07:39:45;96049.88;;;10.06
78917;BMP280;68315;48.608;11.436;2023-10-31T07:42:11;96033.41;;;10.06
78917;BMP280;68315;48.608;11.436;2023-10-31T07:44:36;96032.69;;;10.05
78917;BMP280;68315;48.608;11.436;2023-10-31T07:47:01;96043.66;;;10.05
78917;BMP280;68315;48.608;11.436;2023-10-31T07:49:26;96030.66;;;10.06
78917;BMP280;68315;48.608;11.436;2023-10-31T07:51:52;96034.13;;;10.06
78917;BMP280;68315;48.608;11.436;2023-10-31T07:54:17;96041.25;;;10.09
78917;BMP280;68315;48.608;11.436;2023-10-31T07:56:42;96031.16;;;10.12
78917;BMP280;68315;48.608;11.436;2023-10-31T07:59:08;96036.88;;;10.14
78917;BMP280;68315;48.608;11.436;2023-10-31T08:01:34;96031.00;;;10.18
78917;BMP280;68315;48.608;11.436;2023-10-31T08:04:00;96037.22;;;10.18
78917;BMP280;68315;48.608;11.436;2023-10-31T08:06:25;96034.81;;;10.22
78917;BMP280;68315;48.608;11.436;2023-10-31T08:08:51;96037.56;;;10.22
78917;BMP280;68315;48.608;11.436;2023-10-31T08:11:16;96042.69;;;10.26
78917;BMP280;68315;48.608;11.436;2023-10-31T08:13:41;96047.06;;;10.29
78917;BMP280;68315;48.608;11.436;2023-10-31T08:16:07;96035.50;;;10.30
78917;BMP280;68315;48.608;11.436;2023-10-31T08:18:33;96036.59;;;10.35
78917;BMP280;68315;48.608;11.436;2023-10-31T08:20:58;96039.50;;;10.37
78917;BMP280;68315;48.608;11.436;2023-10-31T08:23:24;96032.69;;;10.45
78917;BMP280;68315;48.608;11.436;2023-10-31T08:25:50;96027.31;;;10.55
78917;BMP280;68315;48.608;11.436;2023-10-31T08:28:15;96027.78;;;10.68
78917;BMP280;68315;48.608;11.436;2023-10-31T08:30:41;96036.31;;;10.80
78917;BMP280;68315;48.608;11.436;2023-10-31T08:33:06;96029.69;;;10.90
78917;BMP280;68315;48.608;11.436;2023-10-31T08:35:31;96022.84;;;10.99
78917;BMP280;68315;48.608;11.436;2023-10-31T08:37:57;96018.03;;;11.07
78917;BMP280;68315;48.608;11.436;2023-10-31T08:40:23;96028.34;;;11.16
78917;BMP280;68315;48.608;11.436;2023-10-31T08:42:48;96034.38;;;11.22
78917;BMP280;68315;48.608;11.436;2023-10-31T08:45:13;96045.88;;;11.28
78917;BMP280;68315;48.608;11.436;2023-10-31T08:47:38;96043.25;;;11.30
78917;BMP280;68315;48.608;11.436;2023-10-31T08:50:04;96043.56;;;11.42
78917;BMP280;68315;48.608;11.436;2023-10-31T08:52:30;96042.19;;;11.50
78917;BMP280;68315;48.608;11.436;2023-10-31T08:54:58;96054.66;;;11.51
78917;BMP280;68315;48.608;11.436;2023-10-31T08:57:23;96057.06;;;11.47
78917;BMP280;68315;48.608;11.436;2023-10-31T08:59:49;96083.16;;;11.39
78917;BMP280;68315;48.608;11.436;2023-10-31T09:02:14;96088.72;;;11.31
78917;BMP280;68315;48.608;11.436;2023-10-31T09:04:39;96122.31;;;11.30
78917;BMP280;68315;48.608;11.436;2023-10-31T09:07:04;96132.06;;;11.23
78917;BMP280;68315;48.608;11.436;2023-10-31T09:09:30;96138.53;;;11.18
78917;BMP280;68315;48.608;11.436;2023-10-31T09:11:55;96151.53;;;11.18
78917;BMP280;68315;48.608;11.436;2023-10-31T09:14:20;96157.44;;;11.14
78917;BMP280;68315;48.608;11.436;2023-10-31T09:16:45;96164.59;;;11.10
78917;BMP280;68315;48.608;11.436;2023-10-31T09:19:11;96163.34;;;11.03
78917;BMP280;68315;48.608;11.436;2023-10-31T09:21:36;96164.06;;;11.04
78917;BMP280;68315;48.608;11.436;2023-10-31T09:24:02;96171.75;;;11.05
78917;BMP280;68315;48.608;11.436;2023-10-31T09:26:27;96175.59;;;11.02
78917;BMP280;68315;48.608;11.436;2023-10-31T09:28:53;96181.31;;;10.97
78917;BMP280;68315;48.608;11.436;2023-10-31T09:31:18;96187.22;;;10.93
78917;BMP280;68315;48.608;11.436;2023-10-31T09:33:45;96183.59;;;10.90
78917;BMP280;68315;48.608;11.436;2023-10-31T09:36:10;96182.84;;;10.90
78917;BMP280;68315;48.608;11.436;2023-10-31T09:38:36;96175.88;;;10.89
78917;BMP280;68315;48.608;11.436;2023-10-31T09:41:02;96172.59;;;10.90
78917;BMP280;68315;48.608;11.436;2023-10-31T09:43:27;96172.00;;;10.92
78917;BMP280;68315;48.608;11.436;2023-10-31T09:45:52;96160.28;;;10.99
78917;BMP280;68315;48.608;11.436;2023-10-31T09:48:19;96174.03;;;10.99
78917;BMP280;68315;48.608;11.436;2023-10-31T09:50:46;96174.16;;;11.01
78917;BMP280;68315;48.608;11.436;2023-10-31T09:53:14;96169.41;;;11.02
78917;BMP280;68315;48.608;11.436;2023-10-31T09:55:39;96172.84;;;11.02
78917;BMP280;68315;48.608;11.436;2023-10-31T09:58:04;96186.25;;;11.06
78917;BMP280;68315;48.608;11.436;2023-10-31T10:00:30;96168.06;;;11.10
78917;BMP280;68315;48.608;11.436;2023-10-31T10:02:55;96171.91;;;11.15
78917;BMP280;68315;48.608;11.436;2023-10-31T10:05:20;96181.03;;;11.17
78917;BMP280;68315;48.608;11.436;2023-10-31T10:07:47;96176.63;;;11.22
78917;BMP280;68315;48.608;11.436;2023-10-31T10:10:13;96178.22;;;11.25
78917;BMP280;68315;48.608;11.436;2023-10-31T10:12:41;96179.34;;;11.29
78917;BMP280;68315;48.608;11.436;2023-10-31T10:15:07;96184.25;;;11.31
78917;BMP280;68315;48.608;11.436;2023-10-31T10:17:33;96184.44;;;11.33
78917;BMP280;68315;48.608;11.436;2023-10-31T10:20:08;96186.63;;;11.34
78917;BMP280;68315;48.608;11.436;2023-10-31T10:22:41;96186.25;;;11.38
78917;BMP280;68315;48.608;11.436;2023-10-31T10:25:14;96174.53;;;11.37
78917;BMP280;68315;48.608;11.436;2023-10-31T10:27:46;96186.78;;;11.36
78917;BMP280;68315;48.608;11.436;2023-10-31T10:30:13;96177.59;;;11.41
78917;BMP280;68315;48.608;11.436;2023-10-31T10:32:39;96176.66;;;11.39
78917;BMP280;68315;48.608;11.436;2023-10-31T10:35:04;96180.59;;;11.36
78917;BMP280;68315;48.608;11.436;2023-10-31T10:37:30;96186.97;;;11.38
78917;BMP280;68315;48.608;11.436;2023-10-31T10:39:56;96190.41;;;11.39
78917;BMP280;68315;48.608;11.436;2023-10-31T10:42:33;96194.88;;;11.34
78917;BMP280;68315;48.608;11.436;2023-10-31T10:45:04;96190.47;;;11.31
78917;BMP280;68315;48.608;11.436;2023-10-31T10:47:31;96197.09;;;11.28
78917;BMP280;68315;48.608;11.436;2023-10-31T10:50:01;96202.22;;;11.32
78917;BMP280;68315;48.608;11.436;2023-10-31T10:52:32;96193.59;;;11.35
78917;BMP280;68315;48.608;11.436;2023-10-31T10:55:04;96200.88;;;11.40
78917;BMP280;68315;48.608;11.436;2023-10-31T10:59:58;96199.25;;;11.37
78917;BMP280;68315;48.608;11.436;2023-10-31T11:02:26;96200.94;;;11.33
78917;BMP280;68315;48.608;11.436;2023-10-31T11:04:52;96189.38;;;11.34
78917;BMP280;68315;48.608;11.436;2023-10-31T11:07:18;96185.56;;;11.30
78917;BMP280;68315;48.608;11.436;2023-10-31T11:09:46;96183.50;;;11.30
78917;BMP280;68315;48.608;11.436;2023-10-31T11:12:12;96184.44;;;11.33
78917;BMP280;68315;48.608;11.436;2023-10-31T11:14:38;96185.56;;;11.30
78917;BMP280;68315;48.608;11.436;2023-10-31T11:17:11;96188.84;;;11.36
78917;BMP280;68315;48.608;11.436;2023-10-31T11:19:40;96192.63;;;11.40
78917;BMP280;68315;48.608;11.436;2023-10-31T11:22:05;96202.31;;;11.49
78917;BMP280;68315;48.608;11.436;2023-10-31T11:24:33;96204.22;;;11.63
78917;BMP280;68315;48.608;11.436;2023-10-31T11:27:00;96203.03;;;11.74
78917;BMP280;68315;48.608;11.436;2023-10-31T11:29:26;96202.25;;;11.81
78917;BMP280;68315;48.608;11.436;2023-10-31T11:31:55;96205.25;;;11.93
78917;BMP280;68315;48.608;11.436;2023-10-31T11:34:21;96207.00;;;12.05
78917;BMP280;68315;48.608;11.436;2023-10-31T11:36:46;96205.13;;;12.08
78917;BMP280;68315;48.608;11.436;2023-10-31T11:39:17;96202.88;;;12.14
78917;BMP280;68315;48.608;11.436;2023-10-31T11:41:48;96204.81;;;12.21
78917;BMP280;68315;48.608;11.436;2023-10-31T11:44:15;96200.53;;;12.27
78917;BMP280;68315;48.608;11.436;2023-10-31T11:46:40;96210.31;;;12.38
78917;BMP280;68315;48.608;11.436;2023-10-31T11:49:06;96201.94;;;12.36
78917;BMP280;68315;48.608;11.436;2023-10-31T11:51:32;96201.75;;;12.34
78917;BMP280;68315;48.608;11.436;2023-10-31T11:53:59;96196.41;;;12.36
78917;BMP280;68315;48.608;11.436;2023-10-31T11:56:24;96201.19;;;12.35
78917;BMP280;68315;48.608;11.436;2023-10-31T11:58:58;96177.69;;;12.34
78917;BMP280;68315;48.608;11.436;2023-10-31T12:01:23;96186.69;;;12.35
78917;BMP280;68315;48.608;11.436;2023-10-31T12:03:48;96185.25;;;12.34
78917;BMP280;68315;48.608;11.436;2023-10-31T12:06:14;96180.94;;;12.40
78917;BMP280;68315;48.608;11.436;2023-10-31T12:08:42;96179.06;;;12.43
78917;BMP280;68315;48.608;11.436;2023-10-31T12:11:11;96174.44;;;12.45
78917;BMP280;68315;48.608;11.436;2023-10-31T12:13:41;96173.72;;;12.45
78917;BMP280;68315;48.608;11.436;2023-10-31T12:16:11;96173.72;;;12.45
78917;BMP280;68315;48.608;11.436;2023-10-31T12:18:38;96177.78;;;12.44
78917;BMP280;68315;48.608;11.436;2023-10-31T12:21:06;96176.06;;;12.48
78917;BMP280;68315;48.608;11.436;2023-10-31T12:23:33;96183.78;;;12.50
78917;BMP280;68315;48.608;11.436;2023-10-31T12:25:58;96177.13;;;12.53
78917;BMP280;68315;48.608;11.436;2023-10-31T12:28:25;96188.13;;;12.53
78917;BMP280;68315;48.608;11.436;2023-10-31T12:30:52;96181.41;;;12.46
78917;BMP280;68315;48.608;11.436;2023-10-31T12:33:20;96179.06;;;12.43
78917;BMP280;68315;48.608;11.436;2023-10-31T12:35:46;96186.63;;;12.42
78917;BMP280;68315;48.608;11.436;2023-10-31T12:38:12;96178.75;;;12.39
78917;BMP280;68315;48.608;11.436;2023-10-31T12:40:40;96191.03;;;12.38
78917;BMP280;68315;48.608;11.436;2023-10-31T12:43:05;96179.16;;;12.35
78917;BMP280;68315;48.608;11.436;2023-10-31T12:45:31;96183.19;;;12.34
78917;BMP280;68315;48.608;11.436;2023-10-31T12:48:09;96189.63;;;12.37
78917;BMP280;68315;48.608;11.436;2023-10-31T12:50:36;96180.75;;;12.38
78917;BMP280;68315;48.608;11.436;2023-10-31T12:53:03;96178.16;;;12.40
78917;BMP280;68315;48.608;11.436;2023-10-31T12:55:29;96181.66;;;12.41
78917;BMP280;68315;48.608;11.436;2023-10-31T12:57:55;96188.66;;;12.42
78917;BMP280;68315;48.608;11.436;2023-10-31T13:00:29;96193.09;;;12.37
78917;BMP280;68315;48.608;11.436;2023-10-31T13:03:01;96188.28;;;12.38
78917;BMP280;68315;48.608;11.436;2023-10-31T13:05:27;96190.34;;;12.37
78917;BMP280;68315;48.608;11.436;2023-10-31T13:07:54;96193.81;;;12.38
78917;BMP280;68315;48.608;11.436;2023-10-31T13:10:24;96201.09;;;12.43
78917;BMP280;68315;48.608;11.436;2023-10-31T13:12:51;96199.72;;;12.51
78917;BMP280;68315;48.608;11.436;2023-10-31T13:15:18;96201.91;;;12.53
78917;BMP280;68315;48.608;11.436;2023-10-31T13:17:44;96200.22;;;12.57
78917;BMP280;68315;48.608;11.436;2023-10-31T13:20:10;96206.78;;;12.62
78917;BMP280;68315;48.608;11.436;2023-10-31T13:22:37;96203.22;;;12.69
78917;BMP280;68315;48.608;11.436;2023-10-31T13:25:04;96222.97;;;12.75
78917;BMP280;68315;48.608;11.436;2023-10-31T13:27:43;96222.97;;;12.75
78917;BMP280;68315;48.608;11.436;2023-10-31T13:30:12;96221.69;;;12.76
78917;BMP280;68315;48.608;11.436;2023-10-31T13:32:39;96235.47;;;12.76
78917;BMP280;68315;48.608;11.436;2023-10-31T13:35:05;96239.09;;;12.79
78917;BMP280;68315;48.608;11.436;2023-10-31T13:37:30;96233.00;;;12.80
78917;BMP280;68315;48.608;11.436;2023-10-31T13:39:56;96234.31;;;12.79
78917;BMP280;68315;48.608;11.436;2023-10-31T13:42:21;96241.69;;;12.77
78917;BMP280;68315;48.608;11.436;2023-10-31T13:44:47;96244.63;;;12.79
78917;BMP280;68315;48.608;11.436;2023-10-31T13:47:13;96244.63;;;12.79
78917;BMP280;68315;48.608;11.436;2023-10-31T13:49:38;96242.44;;;12.77
78917;BMP280;68315;48.608;11.436;2023-10-31T13:52:04;96254.78;;;12.76